Terminal Aerodrome Forecast
Issued by NWS

Home | Current Version | Previous Version | Text Only | Print | Product List | Glossary On
Versions: 1 2 3 4 5 6 7 8 9 10 11 12 13
000
FTUS45 KABQ 211700
TAFAEG
TAF
KAEG 211734Z 2118/2218 32010G18KT P6SM SCT050 SCT120
     FM220100 32008KT P6SM SCT050 BKN120
     FM220900 28010KT P6SM BKN050 BKN090
     FM221700 31015G25KT P6SM SCT045 SCT090=

USA.gov is the U.S. government's official web portal to all federal, state and local government web resources and services.